sensor_id;sensor_type;location;lat;lon;timestamp;pressure;altitude;pressure_sealevel;temperature;humidity
63715;BME280;49858;48.956;9.076;2023-12-22T00:00:56;97391.91;;;10.66;100.00
63715;BME280;49858;48.956;9.076;2023-12-22T00:03:24;97398.22;;;10.70;100.00
63715;BME280;49858;48.956;9.076;2023-12-22T00:05:55;97385.25;;;10.74;100.00
63715;BME280;49858;48.956;9.076;2023-12-22T00:08:23;97400.97;;;10.70;100.00
63715;BME280;49858;48.956;9.076;2023-12-22T00:10:51;97404.00;;;10.36;100.00
63715;BME280;49858;48.956;9.076;2023-12-22T00:13:19;97386.75;;;10.46;100.00
63715;BME280;49858;48.956;9.076;2023-12-22T00:15:46;97411.59;;;9.95;100.00
63715;BME280;49858;48.956;9.076;2023-12-22T00:18:15;97413.84;;;9.82;100.00
63715;BME280;49858;48.956;9.076;2023-12-22T00:20:42;97432.56;;;10.21;100.00
63715;BME280;49858;48.956;9.076;2023-12-22T00:23:12;97457.63;;;9.13;100.00
63715;BME280;49858;48.956;9.076;2023-12-22T00:25:40;97454.06;;;9.12;100.00
63715;BME280;49858;48.956;9.076;2023-12-22T00:28:08;97479.41;;;9.39;100.00
63715;BME280;49858;48.956;9.076;2023-12-22T00:30:36;97528.38;;;9.78;100.00
63715;BME280;49858;48.956;9.076;2023-12-22T00:33:04;97538.53;;;9.70;100.00
63715;BME280;49858;48.956;9.076;2023-12-22T00:35:32;97526.69;;;10.07;100.00
63715;BME280;49858;48.956;9.076;2023-12-22T00:38:03;97528.28;;;10.12;100.00
63715;BME280;49858;48.956;9.076;2023-12-22T00:40:32;97517.53;;;9.96;100.00
63715;BME280;49858;48.956;9.076;2023-12-22T00:43:00;97514.81;;;9.96;100.00
63715;BME280;49858;48.956;9.076;2023-12-22T00:45:28;97518.13;;;9.71;100.00
63715;BME280;49858;48.956;9.076;2023-12-22T00:47:56;97508.59;;;9.58;100.00
63715;BME280;49858;48.956;9.076;2023-12-22T00:50:23;97496.06;;;9.57;100.00
63715;BME280;49858;48.956;9.076;2023-12-22T00:52:51;97518.00;;;8.83;100.00
63715;BME280;49858;48.956;9.076;2023-12-22T00:55:19;97518.00;;;9.57;100.00
63715;BME280;49858;48.956;9.076;2023-12-22T00:57:49;97511.16;;;9.37;100.00
63715;BME280;49858;48.956;9.076;2023-12-22T01:00:17;97505.75;;;9.07;100.00
63715;BME280;49858;48.956;9.076;2023-12-22T01:02:45;97500.59;;;9.02;100.00
63715;BME280;49858;48.956;9.076;2023-12-22T01:05:13;97502.81;;;8.59;100.00
63715;BME280;49858;48.956;9.076;2023-12-22T01:07:40;97492.00;;;8.13;100.00
63715;BME280;49858;48.956;9.076;2023-12-22T01:10:09;97490.28;;;8.58;100.00
63715;BME280;49858;48.956;9.076;2023-12-22T01:12:37;97480.44;;;8.27;100.00
63715;BME280;49858;48.956;9.076;2023-12-22T01:15:07;97475.13;;;7.84;100.00
63715;BME280;49858;48.956;9.076;2023-12-22T01:17:35;97477.56;;;8.16;100.00
63715;BME280;49858;48.956;9.076;2023-12-22T01:20:04;97487.88;;;8.26;100.00
63715;BME280;49858;48.956;9.076;2023-12-22T01:22:33;97493.19;;;8.38;100.00
63715;BME280;49858;48.956;9.076;2023-12-22T01:25:05;97488.28;;;8.55;100.00
63715;BME280;49858;48.956;9.076;2023-12-22T01:27:33;97483.38;;;9.45;100.00
63715;BME280;49858;48.956;9.076;2023-12-22T01:30:01;97490.25;;;9.25;100.00
63715;BME280;49858;48.956;9.076;2023-12-22T01:32:30;97500.19;;;9.40;100.00
63715;BME280;49858;48.956;9.076;2023-12-22T01:35:01;97487.72;;;9.06;100.00
63715;BME280;49858;48.956;9.076;2023-12-22T01:37:35;97486.06;;;9.38;100.00
63715;BME280;49858;48.956;9.076;2023-12-22T01:40:05;97500.00;;;9.60;100.00
63715;BME280;49858;48.956;9.076;2023-12-22T01:42:33;97498.09;;;10.19;100.00
63715;BME280;49858;48.956;9.076;2023-12-22T01:45:01;97495.88;;;9.39;100.00
63715;BME280;49858;48.956;9.076;2023-12-22T01:47:30;97506.47;;;9.85;100.00
63715;BME280;49858;48.956;9.076;2023-12-22T01:49:58;97493.16;;;9.84;100.00
63715;BME280;49858;48.956;9.076;2023-12-22T01:52:26;97482.41;;;9.68;100.00
63715;BME280;49858;48.956;9.076;2023-12-22T01:54:55;97482.09;;;9.32;100.00
63715;BME280;49858;48.956;9.076;2023-12-22T01:57:22;97505.75;;;9.07;100.00
63715;BME280;49858;48.956;9.076;2023-12-22T01:59:50;97495.00;;;9.72;100.00
63715;BME280;49858;48.956;9.076;2023-12-22T02:02:19;97499.63;;;9.20;100.00
63715;BME280;49858;48.956;9.076;2023-12-22T02:04:48;97472.56;;;9.60;100.00
63715;BME280;49858;48.956;9.076;2023-12-22T02:07:16;97493.63;;;9.48;100.00
63715;BME280;49858;48.956;9.076;2023-12-22T02:09:44;97498.75;;;9.98;100.00
63715;BME280;49858;48.956;9.076;2023-12-22T02:12:12;97496.88;;;9.61;100.00
63715;BME280;49858;48.956;9.076;2023-12-22T02:14:40;97489.84;;;9.23;100.00
63715;BME280;49858;48.956;9.076;2023-12-22T02:17:14;97497.94;;;9.09;100.00
63715;BME280;49858;48.956;9.076;2023-12-22T02:19:45;97506.47;;;9.37;100.00
63715;BME280;49858;48.956;9.076;2023-12-22T02:22:15;97507.00;;;9.54;100.00
63715;BME280;49858;48.956;9.076;2023-12-22T02:24:44;97511.22;;;9.88;100.00
63715;BME280;49858;48.956;9.076;2023-12-22T02:27:22;97504.47;;;9.34;100.00
63715;BME280;49858;48.956;9.076;2023-12-22T02:29:58;97497.44;;;9.40;100.00
63715;BME280;49858;48.956;9.076;2023-12-22T02:32:32;97515.34;;;9.24;100.00
63715;BME280;49858;48.956;9.076;2023-12-22T02:35:06;97526.25;;;9.20;100.00
63715;BME280;49858;48.956;9.076;2023-12-22T02:37:35;97527.69;;;9.44;100.00
63715;BME280;49858;48.956;9.076;2023-12-22T02:40:07;97505.41;;;9.53;100.00
63715;BME280;49858;48.956;9.076;2023-12-22T02:42:36;97494.03;;;9.10;100.00
63715;BME280;49858;48.956;9.076;2023-12-22T02:45:05;97501.56;;;9.20;100.00
63715;BME280;49858;48.956;9.076;2023-12-22T02:47:33;97501.91;;;9.15;100.00
63715;BME280;49858;48.956;9.076;2023-12-22T02:50:01;97501.91;;;9.15;100.00
63715;BME280;49858;48.956;9.076;2023-12-22T02:52:29;97497.16;;;9.12;100.00
63715;BME280;49858;48.956;9.076;2023-12-22T02:54:59;97487.56;;;8.91;100.00
63715;BME280;49858;48.956;9.076;2023-12-22T02:57:28;97487.72;;;9.06;100.00
63715;BME280;49858;48.956;9.076;2023-12-22T02:59:56;97483.00;;;9.06;100.00
63715;BME280;49858;48.956;9.076;2023-12-22T03:02:24;97505.50;;;8.85;100.00
63715;BME280;49858;48.956;9.076;2023-12-22T03:04:52;97487.84;;;9.20;100.00
63715;BME280;49858;48.956;9.076;2023-12-22T03:07:20;97486.19;;;9.12;100.00
63715;BME280;49858;48.956;9.076;2023-12-22T03:09:48;97486.63;;;9.14;100.00
63715;BME280;49858;48.956;9.076;2023-12-22T03:12:16;97500.97;;;9.37;100.00
63715;BME280;49858;48.956;9.076;2023-12-22T03:14:45;97490.16;;;9.14;100.00
63715;BME280;49858;48.956;9.076;2023-12-22T03:17:13;97507.66;;;9.40;100.00
63715;BME280;49858;48.956;9.076;2023-12-22T03:19:41;97509.91;;;9.31;100.00
63715;BME280;49858;48.956;9.076;2023-12-22T03:22:09;97520.19;;;9.41;100.00
63715;BME280;49858;48.956;9.076;2023-12-22T03:24:37;97496.66;;;9.36;100.00
63715;BME280;49858;48.956;9.076;2023-12-22T03:27:05;97484.94;;;9.43;100.00
63715;BME280;49858;48.956;9.076;2023-12-22T03:29:33;97488.25;;;9.18;100.00
63715;BME280;49858;48.956;9.076;2023-12-22T03:32:03;97477.31;;;9.66;100.00
63715;BME280;49858;48.956;9.076;2023-12-22T03:34:31;97515.38;;;9.27;100.00
63715;BME280;49858;48.956;9.076;2023-12-22T03:36:59;97506.47;;;9.41;100.00
63715;BME280;49858;48.956;9.076;2023-12-22T03:39:26;97507.38;;;9.52;100.00
63715;BME280;49858;48.956;9.076;2023-12-22T03:41:54;97494.59;;;9.70;100.00
63715;BME280;49858;48.956;9.076;2023-12-22T03:44:22;97513.13;;;9.36;100.00
63715;BME280;49858;48.956;9.076;2023-12-22T03:46:52;97518.59;;;9.36;100.00
63715;BME280;49858;48.956;9.076;2023-12-22T03:49:21;97508.72;;;9.72;100.00
63715;BME280;49858;48.956;9.076;2023-12-22T03:51:49;97520.97;;;9.01;100.00
63715;BME280;49858;48.956;9.076;2023-12-22T03:54:17;97510.94;;;9.56;100.00
63715;BME280;49858;48.956;9.076;2023-12-22T03:56:45;97514.31;;;9.02;100.00
63715;BME280;49858;48.956;9.076;2023-12-22T03:59:13;97530.38;;;8.69;100.00
63715;BME280;49858;48.956;9.076;2023-12-22T04:01:41;97534.34;;;7.47;100.00
63715;BME280;49858;48.956;9.076;2023-12-22T04:04:09;97697.50;;;7.55;100.00
63715;BME280;49858;48.956;9.076;2023-12-22T04:06:39;97760.41;;;7.00;100.00
63715;BME280;49858;48.956;9.076;2023-12-22T04:09:07;97720.56;;;7.73;100.00
63715;BME280;49858;48.956;9.076;2023-12-22T04:11:35;97713.34;;;7.65;100.00
63715;BME280;49858;48.956;9.076;2023-12-22T04:14:06;97764.84;;;7.98;100.00
63715;BME280;49858;48.956;9.076;2023-12-22T04:16:36;97740.34;;;8.05;100.00
63715;BME280;49858;48.956;9.076;2023-12-22T04:19:04;97703.25;;;7.88;100.00
63715;BME280;49858;48.956;9.076;2023-12-22T04:21:38;97671.31;;;8.19;100.00
63715;BME280;49858;48.956;9.076;2023-12-22T04:24:06;97636.34;;;8.58;100.00
63715;BME280;49858;48.956;9.076;2023-12-22T04:26:35;97608.81;;;8.51;100.00
63715;BME280;49858;48.956;9.076;2023-12-22T04:29:03;97599.88;;;8.84;100.00
63715;BME280;49858;48.956;9.076;2023-12-22T04:31:31;97607.56;;;8.45;100.00
63715;BME280;49858;48.956;9.076;2023-12-22T04:33:59;97571.97;;;7.99;100.00
63715;BME280;49858;48.956;9.076;2023-12-22T04:36:27;97591.28;;;8.56;100.00
63715;BME280;49858;48.956;9.076;2023-12-22T04:38:56;97596.41;;;9.17;100.00
63715;BME280;49858;48.956;9.076;2023-12-22T04:41:24;97600.13;;;9.02;100.00
63715;BME280;49858;48.956;9.076;2023-12-22T04:43:51;97570.25;;;8.37;100.00
63715;BME280;49858;48.956;9.076;2023-12-22T04:46:19;97577.56;;;8.29;100.00
63715;BME280;49858;48.956;9.076;2023-12-22T04:48:47;97571.06;;;8.14;100.00
63715;BME280;49858;48.956;9.076;2023-12-22T04:51:15;97567.06;;;8.35;100.00
63715;BME280;49858;48.956;9.076;2023-12-22T04:53:43;97563.78;;;8.49;100.00
63715;BME280;49858;48.956;9.076;2023-12-22T04:56:12;97578.31;;;8.53;100.00
63715;BME280;49858;48.956;9.076;2023-12-22T04:58:40;97561.28;;;8.40;100.00
63715;BME280;49858;48.956;9.076;2023-12-22T05:01:08;97574.56;;;8.94;100.00
63715;BME280;49858;48.956;9.076;2023-12-22T05:03:36;97571.81;;;8.64;100.00
63715;BME280;49858;48.956;9.076;2023-12-22T05:06:04;97579.63;;;8.62;100.00
63715;BME280;49858;48.956;9.076;2023-12-22T05:08:32;97592.28;;;9.01;100.00
63715;BME280;49858;48.956;9.076;2023-12-22T05:11:00;97626.91;;;8.56;100.00
63715;BME280;49858;48.956;9.076;2023-12-22T05:13:30;97578.84;;;8.62;100.00
63715;BME280;49858;48.956;9.076;2023-12-22T05:15:58;97581.56;;;8.35;100.00
63715;BME280;49858;48.956;9.076;2023-12-22T05:18:25;97584.00;;;8.97;100.00
63715;BME280;49858;48.956;9.076;2023-12-22T05:20:53;97571.16;;;8.75;100.00
63715;BME280;49858;48.956;9.076;2023-12-22T05:23:21;97598.22;;;9.06;100.00
63715;BME280;49858;48.956;9.076;2023-12-22T05:25:49;97581.41;;;8.78;100.00
63715;BME280;49858;48.956;9.076;2023-12-22T05:28:18;97578.94;;;8.69;100.00
63715;BME280;49858;48.956;9.076;2023-12-22T05:30:47;97577.81;;;9.04;100.00
63715;BME280;49858;48.956;9.076;2023-12-22T05:33:15;97594.56;;;8.38;100.00
63715;BME280;49858;48.956;9.076;2023-12-22T05:35:42;97593.69;;;8.61;100.00
63715;BME280;49858;48.956;9.076;2023-12-22T05:38:10;97583.88;;;8.33;100.00
63715;BME280;49858;48.956;9.076;2023-12-22T05:40:38;97582.00;;;8.64;100.00
63715;BME280;49858;48.956;9.076;2023-12-22T05:43:06;97574.81;;;8.82;100.00
63715;BME280;49858;48.956;9.076;2023-12-22T05:45:34;97584.66;;;8.87;100.00
63715;BME280;49858;48.956;9.076;2023-12-22T05:48:04;97608.28;;;8.95;100.00
63715;BME280;49858;48.956;9.076;2023-12-22T05:50:33;97581.38;;;9.08;100.00
63715;BME280;49858;48.956;9.076;2023-12-22T05:53:01;97629.56;;;8.75;100.00
63715;BME280;49858;48.956;9.076;2023-12-22T05:55:29;97573.03;;;9.31;100.00
63715;BME280;49858;48.956;9.076;2023-12-22T05:57:57;97559.44;;;9.41;100.00
63715;BME280;49858;48.956;9.076;2023-12-22T06:00:25;97572.75;;;9.06;100.00
63715;BME280;49858;48.956;9.076;2023-12-22T06:02:53;97589.09;;;8.99;100.00
63715;BME280;49858;48.956;9.076;2023-12-22T06:05:22;97580.91;;;9.32;100.00
63715;BME280;49858;48.956;9.076;2023-12-22T06:07:50;97583.16;;;9.27;100.00
63715;BME280;49858;48.956;9.076;2023-12-22T06:10:18;97610.78;;;9.41;100.00
63715;BME280;49858;48.956;9.076;2023-12-22T06:12:46;97608.19;;;9.18;100.00
63715;BME280;49858;48.956;9.076;2023-12-22T06:15:14;97578.13;;;8.99;100.00
63715;BME280;49858;48.956;9.076;2023-12-22T06:17:42;97601.25;;;9.31;100.00
63715;BME280;49858;48.956;9.076;2023-12-22T06:20:10;97641.84;;;8.85;100.00
63715;BME280;49858;48.956;9.076;2023-12-22T06:22:40;97647.38;;;8.62;100.00
63715;BME280;49858;48.956;9.076;2023-12-22T06:25:08;97626.56;;;8.87;100.00
63715;BME280;49858;48.956;9.076;2023-12-22T06:27:36;97652.19;;;8.99;100.00
63715;BME280;49858;48.956;9.076;2023-12-22T06:30:05;97652.34;;;9.09;100.00
63715;BME280;49858;48.956;9.076;2023-12-22T06:32:34;97636.81;;;8.90;100.00
63715;BME280;49858;48.956;9.076;2023-12-22T06:35:07;97624.03;;;9.02;100.00
63715;BME280;49858;48.956;9.076;2023-12-22T06:37:40;97665.09;;;8.94;100.00
63715;BME280;49858;48.956;9.076;2023-12-22T06:40:09;97650.66;;;9.01;100.00
63715;BME280;49858;48.956;9.076;2023-12-22T06:42:37;97650.16;;;8.92;100.00
63715;BME280;49858;48.956;9.076;2023-12-22T06:45:07;97647.78;;;8.90;100.00
63715;BME280;49858;48.956;9.076;2023-12-22T06:47:37;97642.56;;;9.42;100.00
63715;BME280;49858;48.956;9.076;2023-12-22T06:50:05;97650.56;;;9.58;100.00
63715;BME280;49858;48.956;9.076;2023-12-22T06:52:33;97655.59;;;9.18;100.00
63715;BME280;49858;48.956;9.076;2023-12-22T06:55:03;97648.16;;;9.19;100.00
63715;BME280;49858;48.956;9.076;2023-12-22T06:57:31;97673.13;;;9.10;100.00
63715;BME280;49858;48.956;9.076;2023-12-22T07:00:01;97667.28;;;9.45;100.00
63715;BME280;49858;48.956;9.076;2023-12-22T07:02:29;97694.38;;;9.17;100.00
63715;BME280;49858;48.956;9.076;2023-12-22T07:05:04;97694.34;;;9.43;100.00
63715;BME280;49858;48.956;9.076;2023-12-22T07:07:54;97687.56;;;9.07;100.00
63715;BME280;49858;48.956;9.076;2023-12-22T07:10:23;97698.91;;;9.32;100.00
63715;BME280;49858;48.956;9.076;2023-12-22T07:12:51;97702.78;;;9.61;100.00
63715;BME280;49858;48.956;9.076;2023-12-22T07:15:20;97732.75;;;8.87;100.00
63715;BME280;49858;48.956;9.076;2023-12-22T07:17:48;97708.66;;;9.00;100.00
63715;BME280;49858;48.956;9.076;2023-12-22T07:20:16;97728.97;;;8.99;100.00
63715;BME280;49858;48.956;9.076;2023-12-22T07:22:44;97728.00;;;9.10;100.00
63715;BME280;49858;48.956;9.076;2023-12-22T07:25:13;97733.09;;;9.12;100.00
63715;BME280;49858;48.956;9.076;2023-12-22T07:27:42;97721.59;;;9.29;100.00
63715;BME280;49858;48.956;9.076;2023-12-22T07:30:10;97744.63;;;8.94;100.00
63715;BME280;49858;48.956;9.076;2023-12-22T07:32:43;97726.88;;;9.41;100.00
63715;BME280;49858;48.956;9.076;2023-12-22T07:35:14;97744.88;;;8.86;100.00
63715;BME280;49858;48.956;9.076;2023-12-22T07:37:44;97761.88;;;8.95;100.00
63715;BME280;49858;48.956;9.076;2023-12-22T07:40:12;97761.09;;;8.94;100.00
63715;BME280;49858;48.956;9.076;2023-12-22T07:42:44;97759.91;;;8.95;100.00
63715;BME280;49858;48.956;9.076;2023-12-22T07:45:12;97765.19;;;8.81;100.00
63715;BME280;49858;48.956;9.076;2023-12-22T07:47:40;97778.25;;;8.91;100.00
63715;BME280;49858;48.956;9.076;2023-12-22T07:50:08;97780.53;;;9.12;100.00
63715;BME280;49858;48.956;9.076;2023-12-22T07:52:36;97779.44;;;9.17;100.00
63715;BME280;49858;48.956;9.076;2023-12-22T07:55:08;97776.75;;;9.20;100.00
63715;BME280;49858;48.956;9.076;2023-12-22T07:57:37;97781.66;;;9.34;100.00
63715;BME280;49858;48.956;9.076;2023-12-22T08:00:07;97787.72;;;9.20;100.00
63715;BME280;49858;48.956;9.076;2023-12-22T08:02:39;97820.69;;;8.52;100.00
63715;BME280;49858;48.956;9.076;2023-12-22T08:05:08;98041.16;;;8.19;100.00
63715;BME280;49858;48.956;9.076;2023-12-22T08:07:36;97990.16;;;7.63;100.00
63715;BME280;49858;48.956;9.076;2023-12-22T08:10:05;98027.97;;;7.58;100.00
63715;BME280;49858;48.956;9.076;2023-12-22T08:12:33;98098.16;;;8.29;100.00
63715;BME280;49858;48.956;9.076;2023-12-22T08:15:03;98103.47;;;7.90;100.00
63715;BME280;49858;48.956;9.076;2023-12-22T08:17:33;98115.22;;;8.38;100.00
63715;BME280;49858;48.956;9.076;2023-12-22T08:20:02;98090.53;;;8.23;100.00
63715;BME280;49858;48.956;9.076;2023-12-22T08:22:39;98060.13;;;8.43;100.00
63715;BME280;49858;48.956;9.076;2023-12-22T08:25:12;98024.97;;;9.04;100.00
63715;BME280;49858;48.956;9.076;2023-12-22T08:27:40;97984.97;;;8.44;100.00
63715;BME280;49858;48.956;9.076;2023-12-22T08:30:09;97942.13;;;8.56;100.00
63715;BME280;49858;48.956;9.076;2023-12-22T08:32:38;97928.88;;;8.58;100.00
63715;BME280;49858;48.956;9.076;2023-12-22T08:35:07;97889.91;;;8.68;100.00
63715;BME280;49858;48.956;9.076;2023-12-22T08:37:35;97867.72;;;8.77;100.00
63715;BME280;49858;48.956;9.076;2023-12-22T08:40:05;97850.53;;;8.57;100.00
63715;BME280;49858;48.956;9.076;2023-12-22T08:42:33;97826.22;;;8.78;100.00
63715;BME280;49858;48.956;9.076;2023-12-22T08:45:01;97817.28;;;8.58;100.00
63715;BME280;49858;48.956;9.076;2023-12-22T08:47:32;97810.75;;;8.43;100.00
63715;BME280;49858;48.956;9.076;2023-12-22T08:50:01;97812.28;;;8.64;100.00
63715;BME280;49858;48.956;9.076;2023-12-22T08:52:32;97782.16;;;8.90;100.00
63715;BME280;49858;48.956;9.076;2023-12-22T08:55:00;97790.19;;;8.80;100.00
63715;BME280;49858;48.956;9.076;2023-12-22T08:57:28;97796.22;;;9.38;100.00
63715;BME280;49858;48.956;9.076;2023-12-22T08:59:56;97813.66;;;9.00;100.00
63715;BME280;49858;48.956;9.076;2023-12-22T09:02:24;97799.66;;;8.82;100.00
63715;BME280;49858;48.956;9.076;2023-12-22T09:04:53;97796.31;;;9.19;100.00
63715;BME280;49858;48.956;9.076;2023-12-22T09:07:22;97791.56;;;8.89;100.00
63715;BME280;49858;48.956;9.076;2023-12-22T09:09:51;97792.91;;;8.99;100.00
63715;BME280;49858;48.956;9.076;2023-12-22T09:12:19;97792.66;;;8.62;100.00
63715;BME280;49858;48.956;9.076;2023-12-22T09:14:47;97815.47;;;8.66;100.00
63715;BME280;49858;48.956;9.076;2023-12-22T09:17:15;97812.56;;;9.05;100.00
63715;BME280;49858;48.956;9.076;2023-12-22T09:19:43;97797.06;;;9.42;100.00
63715;BME280;49858;48.956;9.076;2023-12-22T09:22:11;97806.59;;;8.99;100.00
63715;BME280;49858;48.956;9.076;2023-12-22T09:24:41;97810.25;;;9.33;100.00
63715;BME280;49858;48.956;9.076;2023-12-22T09:27:09;97800.06;;;9.34;100.00
63715;BME280;49858;48.956;9.076;2023-12-22T09:29:37;97804.31;;;9.28;100.00
63715;BME280;49858;48.956;9.076;2023-12-22T09:32:05;97823.44;;;9.24;100.00
63715;BME280;49858;48.956;9.076;2023-12-22T09:34:33;97811.72;;;9.54;100.00
63715;BME280;49858;48.956;9.076;2023-12-22T09:37:01;97820.09;;;9.64;100.00
63715;BME280;49858;48.956;9.076;2023-12-22T09:39:30;97817.78;;;9.40;100.00
63715;BME280;49858;48.956;9.076;2023-12-22T09:41:59;97817.34;;;9.64;100.00
63715;BME280;49858;48.956;9.076;2023-12-22T09:44:31;97827.31;;;9.46;100.00
63715;BME280;49858;48.956;9.076;2023-12-22T09:47:04;97819.97;;;9.54;100.00
63715;BME280;49858;48.956;9.076;2023-12-22T09:49:34;97821.50;;;9.25;100.00
63715;BME280;49858;48.956;9.076;2023-12-22T09:52:04;97809.13;;;9.64;100.00
63715;BME280;49858;48.956;9.076;2023-12-22T09:54:34;97823.13;;;9.56;100.00
63715;BME280;49858;48.956;9.076;2023-12-22T09:57:06;97802.84;;;9.94;100.00
63715;BME280;49858;48.956;9.076;2023-12-22T09:59:48;97808.44;;;9.71;100.00
63715;BME280;49858;48.956;9.076;2023-12-22T10:02:17;97806.44;;;9.68;100.00
63715;BME280;49858;48.956;9.076;2023-12-22T10:04:45;97811.44;;;9.92;100.00
63715;BME280;49858;48.956;9.076;2023-12-22T10:07:13;97797.72;;;9.62;100.00
63715;BME280;49858;48.956;9.076;2023-12-22T10:09:42;97786.34;;;9.60;100.00
63715;BME280;49858;48.956;9.076;2023-12-22T10:12:11;97802.78;;;9.90;100.00
63715;BME280;49858;48.956;9.076;2023-12-22T10:14:41;97785.75;;;9.78;100.00
63715;BME280;49858;48.956;9.076;2023-12-22T10:17:09;97781.81;;;10.09;100.00
63715;BME280;49858;48.956;9.076;2023-12-22T10:19:37;97763.41;;;10.13;100.00
63715;BME280;49858;48.956;9.076;2023-12-22T10:22:06;97762.31;;;9.87;100.00
63715;BME280;49858;48.956;9.076;2023-12-22T10:24:38;97777.06;;;9.72;100.00
63715;BME280;49858;48.956;9.076;2023-12-22T10:27:06;97760.34;;;10.18;100.00
63715;BME280;49858;48.956;9.076;2023-12-22T10:29:35;97757.97;;;9.83;100.00
63715;BME280;49858;48.956;9.076;2023-12-22T10:32:04;97764.44;;;10.31;100.00
63715;BME280;49858;48.956;9.076;2023-12-22T10:34:34;97769.44;;;9.92;100.00
63715;BME280;49858;48.956;9.076;2023-12-22T10:37:03;97765.88;;;9.88;100.00
63715;BME280;49858;48.956;9.076;2023-12-22T10:39:32;97766.34;;;9.93;100.00
63715;BME280;49858;48.956;9.076;2023-12-22T10:42:00;97748.31;;;9.96;100.00
63715;BME280;49858;48.956;9.076;2023-12-22T10:44:29;97738.81;;;9.90;100.00
63715;BME280;49858;48.956;9.076;2023-12-22T10:47:00;97738.59;;;10.06;100.00
63715;BME280;49858;48.956;9.076;2023-12-22T10:49:30;97736.16;;;10.31;100.00
63715;BME280;49858;48.956;9.076;2023-12-22T10:51:57;97751.22;;;10.10;100.00
63715;BME280;49858;48.956;9.076;2023-12-22T10:54:25;97727.00;;;9.86;100.00
63715;BME280;49858;48.956;9.076;2023-12-22T10:56:55;97747.91;;;9.60;100.00
63715;BME280;49858;48.956;9.076;2023-12-22T10:59:28;97735.78;;;9.65;100.00
63715;BME280;49858;48.956;9.076;2023-12-22T11:02:01;97738.22;;;9.73;100.00
63715;BME280;49858;48.956;9.076;2023-12-22T11:04:30;97749.53;;;9.65;100.00
63715;BME280;49858;48.956;9.076;2023-12-22T11:07:03;97743.25;;;9.68;100.00
63715;BME280;49858;48.956;9.076;2023-12-22T11:09:33;97754.41;;;9.82;100.00
63715;BME280;49858;48.956;9.076;2023-12-22T11:12:04;97745.56;;;9.62;100.00
63715;BME280;49858;48.956;9.076;2023-12-22T11:14:34;97763.06;;;9.51;100.00
63715;BME280;49858;48.956;9.076;2023-12-22T11:17:10;97725.94;;;9.60;100.00
63715;BME280;49858;48.956;9.076;2023-12-22T11:19:39;97731.25;;;9.50;100.00
63715;BME280;49858;48.956;9.076;2023-12-22T11:22:09;97741.72;;;9.40;100.00
63715;BME280;49858;48.956;9.076;2023-12-22T11:24:38;97731.53;;;9.41;100.00
63715;BME280;49858;48.956;9.076;2023-12-22T11:27:09;97743.41;;;9.48;100.00
63715;BME280;49858;48.956;9.076;2023-12-22T11:29:40;97679.22;;;9.57;100.00
63715;BME280;49858;48.956;9.076;2023-12-22T11:32:10;97716.22;;;9.36;100.00
63715;BME280;49858;48.956;9.076;2023-12-22T11:34:42;97690.75;;;9.73;100.00
63715;BME280;49858;48.956;9.076;2023-12-22T11:37:11;97722.09;;;9.38;100.00
63715;BME280;49858;48.956;9.076;2023-12-22T11:39:40;97678.47;;;9.60;100.00
63715;BME280;49858;48.956;9.076;2023-12-22T11:42:16;97695.66;;;9.27;100.00
63715;BME280;49858;48.956;9.076;2023-12-22T11:44:44;97686.59;;;9.53;100.00
63715;BME280;49858;48.956;9.076;2023-12-22T11:47:14;97682.34;;;9.55;100.00
63715;BME280;49858;48.956;9.076;2023-12-22T11:49:46;97673.50;;;9.39;100.00
63715;BME280;49858;48.956;9.076;2023-12-22T11:52:18;97666.09;;;9.43;100.00
63715;BME280;49858;48.956;9.076;2023-12-22T11:54:53;97665.38;;;9.46;100.00
63715;BME280;49858;48.956;9.076;2023-12-22T11:57:36;97663.75;;;9.45;100.00
63715;BME280;49858;48.956;9.076;2023-12-22T12:00:07;97650.91;;;9.53;100.00
63715;BME280;49858;48.956;9.076;2023-12-22T12:02:41;97661.78;;;9.45;100.00
63715;BME280;49858;48.956;9.076;2023-12-22T12:05:10;97646.44;;;9.37;100.00
63715;BME280;49858;48.956;9.076;2023-12-22T12:07:43;97656.34;;;9.15;100.00
63715;BME280;49858;48.956;9.076;2023-12-22T12:13:27;97595.50;;;9.81;100.00
63715;BME280;49858;48.956;9.076;2023-12-22T12:15:57;97603.00;;;9.87;100.00
63715;BME280;49858;48.956;9.076;2023-12-22T12:18:30;97612.09;;;9.54;100.00
63715;BME280;49858;48.956;9.076;2023-12-22T12:20:59;97605.09;;;9.57;100.00
63715;BME280;49858;48.956;9.076;2023-12-22T12:23:27;97597.28;;;9.62;100.00
63715;BME280;49858;48.956;9.076;2023-12-22T12:25:56;97609.59;;;9.76;100.00
63715;BME280;49858;48.956;9.076;2023-12-22T12:28:25;97622.91;;;9.36;100.00
63715;BME280;49858;48.956;9.076;2023-12-22T12:30:57;97598.84;;;9.60;100.00
63715;BME280;49858;48.956;9.076;2023-12-22T12:33:27;97599.25;;;9.62;100.00
63715;BME280;49858;48.956;9.076;2023-12-22T12:35:57;97598.75;;;9.53;100.00
63715;BME280;49858;48.956;9.076;2023-12-22T12:38:36;97654.78;;;9.48;100.00
63715;BME280;49858;48.956;9.076;2023-12-22T12:41:04;97606.88;;;9.42;100.00
63715;BME280;49858;48.956;9.076;2023-12-22T12:43:33;97636.22;;;9.71;100.00
63715;BME280;49858;48.956;9.076;2023-12-22T12:46:04;97620.81;;;9.60;100.00
63715;BME280;49858;48.956;9.076;2023-12-22T12:48:33;97595.56;;;9.88;100.00
63715;BME280;49858;48.956;9.076;2023-12-22T12:51:04;97598.50;;;9.65;100.00
63715;BME280;49858;48.956;9.076;2023-12-22T12:53:33;97638.41;;;9.55;100.00
63715;BME280;49858;48.956;9.076;2023-12-22T12:56:01;97599.91;;;9.89;100.00
63715;BME280;49858;48.956;9.076;2023-12-22T12:58:29;97607.53;;;9.69;100.00
63715;BME280;49858;48.956;9.076;2023-12-22T13:01:07;97602.00;;;10.03;100.00
63715;BME280;49858;48.956;9.076;2023-12-22T13:03:53;97588.38;;;10.17;100.00
63715;BME280;49858;48.956;9.076;2023-12-22T13:06:24;97606.63;;;9.95;100.00
63715;BME280;49858;48.956;9.076;2023-12-22T13:08:52;97607.06;;;10.01;100.00
63715;BME280;49858;48.956;9.076;2023-12-22T13:11:20;97585.09;;;10.01;100.00
63715;BME280;49858;48.956;9.076;2023-12-22T13:13:49;97600.50;;;10.12;100.00